createdAt,value
2023-04-18T00:00:08.043Z,30.20
2023-04-18T00:02:36.835Z,30.30
2023-04-18T00:05:05.794Z,30.30
2023-04-18T00:07:36.256Z,30.30
2023-04-18T00:10:04.881Z,30.30
2023-04-18T00:12:34.566Z,30.40
2023-04-18T00:15:03.113Z,30.40
2023-04-18T00:17:32.371Z,30.40
2023-04-18T00:20:02.560Z,30.50
2023-04-18T00:25:12.795Z,30.50
2023-04-18T00:27:40.459Z,30.60
2023-04-18T00:30:08.997Z,30.60
2023-04-18T00:32:36.733Z,30.60
2023-04-18T00:35:04.591Z,30.70
2023-04-18T00:37:34.655Z,30.80
2023-04-18T00:40:04.977Z,30.80
2023-04-18T00:42:35.422Z,30.80
2023-04-18T00:45:12.885Z,30.90
2023-04-18T00:47:42.185Z,31.00
2023-04-18T00:52:55.331Z,31.10
2023-04-18T00:55:23.045Z,31.20
2023-04-18T01:11:38.081Z,31.70
2023-04-18T01:14:17.811Z,31.80
2023-04-18T01:16:48.518Z,31.90
2023-04-18T01:19:21.941Z,31.90
2023-04-18T01:21:52.732Z,31.90
2023-04-18T01:24:20.582Z,31.90
2023-04-18T01:27:01.884Z,32.00
2023-04-18T01:29:29.920Z,32.10
2023-04-18T01:31:58.527Z,32.10
2023-04-18T01:37:12.135Z,32.20
2023-04-18T01:42:22.147Z,32.20
2023-04-18T01:44:51.846Z,32.20
2023-04-18T01:47:22.448Z,32.20
2023-04-18T01:49:50.164Z,32.30
2023-04-18T01:52:18.666Z,32.30
2023-04-18T01:54:47.066Z,32.40
2023-04-18T01:57:15.112Z,32.50
2023-04-18T01:59:42.845Z,32.60
2023-04-18T02:02:12.297Z,32.70
2023-04-18T02:04:39.888Z,32.80
2023-04-18T02:07:08.299Z,32.80
2023-04-18T02:09:36.771Z,32.90
2023-04-18T02:12:06.852Z,32.90
2023-04-18T02:14:36.706Z,32.90
2023-04-18T02:17:13.528Z,33.00
2023-04-18T02:19:45.252Z,33.10
2023-04-18T02:22:12.834Z,33.10
2023-04-18T02:27:22.038Z,33.20
2023-04-18T02:29:51.984Z,33.30
2023-04-18T02:32:19.569Z,33.30
2023-04-18T02:34:47.541Z,33.30
2023-04-18T02:37:15.282Z,33.40
2023-04-18T02:39:42.923Z,33.50
2023-04-18T02:42:10.578Z,33.50
2023-04-18T02:44:38.221Z,33.60
2023-04-18T02:47:06.341Z,33.60
2023-04-18T02:49:34.436Z,33.60
2023-04-18T02:52:02.102Z,33.70
2023-04-18T02:54:30.003Z,33.80
2023-04-18T02:59:34.750Z,33.90
2023-04-18T03:02:02.476Z,34.00
2023-04-18T03:04:30.324Z,34.00
2023-04-18T03:06:59.549Z,34.10
2023-04-18T03:09:27.312Z,34.10
2023-04-18T03:11:54.961Z,34.20
2023-04-18T03:14:23.501Z,34.30
2023-04-18T03:16:53.837Z,34.40
2023-04-18T03:19:27.360Z,34.40
2023-04-18T03:21:55.298Z,34.40
2023-04-18T03:24:22.989Z,34.50
2023-04-18T03:26:50.796Z,34.60
2023-04-18T03:29:18.515Z,34.70
2023-04-18T03:31:46.171Z,34.70
2023-04-18T03:34:13.986Z,34.80
2023-04-18T03:36:42.503Z,34.90
2023-04-18T03:39:10.994Z,35.00
2023-04-18T03:41:44.345Z,35.00
2023-04-18T03:44:20.998Z,35.10
2023-04-18T03:46:48.622Z,35.10
2023-04-18T03:49:16.412Z,35.20
2023-04-18T03:51:45.484Z,35.20
2023-04-18T03:54:13.544Z,35.30
2023-04-18T03:56:42.004Z,35.30
2023-04-18T03:59:10.416Z,35.40
2023-04-18T04:01:38.256Z,35.40
2023-04-18T04:04:23.671Z,35.50
2023-04-18T04:06:51.528Z,35.50
2023-04-18T04:09:19.220Z,35.60
2023-04-18T04:11:49.472Z,35.70
2023-04-18T04:14:19.981Z,35.60
2023-04-18T04:16:54.152Z,35.70
2023-04-18T04:19:22.088Z,35.80
2023-04-18T04:21:49.657Z,35.80
2023-04-18T04:24:17.256Z,35.80
2023-04-18T04:26:45.378Z,35.80
2023-04-18T04:29:14.173Z,35.80
2023-04-18T04:31:43.214Z,35.80
2023-04-18T04:34:11.802Z,35.80
2023-04-18T04:36:44.028Z,35.80
2023-04-18T04:39:23.903Z,35.90
2023-04-18T04:41:56.666Z,35.90
2023-04-18T04:44:27.117Z,35.90
2023-04-18T04:46:54.758Z,36.00
2023-04-18T04:49:22.358Z,36.10
2023-04-18T04:51:49.974Z,36.10
2023-04-18T04:54:20.379Z,36.10
2023-04-18T04:56:51.569Z,36.10
2023-04-18T04:59:19.169Z,36.20
2023-04-18T05:02:02.240Z,36.30
2023-04-18T05:04:30.201Z,36.30
2023-04-18T05:06:58.361Z,36.40
2023-04-18T05:09:33.577Z,36.40
2023-04-18T05:12:04.367Z,36.50
2023-04-18T05:14:32.274Z,36.60
2023-04-18T05:17:00.302Z,36.60
2023-04-18T05:19:28.022Z,36.70
2023-04-18T05:21:56.037Z,36.70
2023-04-18T05:24:23.709Z,36.70
2023-04-18T05:26:52.102Z,36.80
2023-04-18T05:29:19.729Z,36.90
2023-04-18T05:31:47.437Z,37.00
2023-04-18T05:34:15.608Z,37.00
2023-04-18T05:36:43.983Z,37.10
2023-04-18T05:39:12.876Z,37.10
2023-04-18T05:41:43.715Z,37.10
2023-04-18T05:44:11.363Z,37.10
2023-04-18T05:46:39.374Z,37.10
2023-04-18T05:49:08.899Z,37.10
2023-04-18T05:51:36.575Z,37.20
2023-04-18T05:54:05.124Z,37.20
2023-04-18T05:56:32.931Z,37.30
2023-04-18T05:59:02.714Z,37.30
2023-04-18T06:01:30.337Z,37.40
2023-04-18T06:03:58.400Z,37.40
2023-04-18T06:06:27.228Z,37.40
2023-04-18T06:08:55.206Z,37.40
2023-04-18T06:11:23.728Z,37.40
2023-04-18T06:13:51.318Z,37.40
2023-04-18T06:16:18.995Z,37.40
2023-04-18T06:18:46.650Z,37.40
2023-04-18T06:21:14.593Z,37.40
2023-04-18T06:23:42.391Z,37.50
2023-04-18T06:26:10.293Z,37.50
2023-04-18T06:28:38.140Z,37.60
2023-04-18T06:31:05.820Z,37.60
2023-04-18T06:33:36.723Z,37.60
2023-04-18T06:36:06.051Z,37.60
2023-04-18T06:38:34.086Z,37.60
2023-04-18T06:41:01.723Z,37.70
2023-04-18T06:43:36.446Z,37.70
2023-04-18T06:46:05.516Z,37.70
2023-04-18T06:48:34.130Z,37.70
2023-04-18T06:51:01.773Z,37.70
2023-04-18T06:53:29.434Z,37.70
2023-04-18T06:55:57.180Z,37.70
2023-04-18T06:58:25.739Z,37.80
2023-04-18T07:00:54.427Z,37.80
2023-04-18T07:03:22.312Z,37.90
2023-04-18T07:05:50.942Z,37.90
2023-04-18T07:08:18.560Z,37.90
2023-04-18T07:10:47.093Z,38.00
2023-04-18T07:13:15.535Z,38.00
2023-04-18T07:15:43.243Z,38.00
2023-04-18T07:18:11.250Z,38.10
2023-04-18T07:20:38.975Z,38.20
2023-04-18T07:23:07.272Z,38.20
2023-04-18T07:25:35.737Z,38.20
2023-04-18T07:28:03.593Z,38.20
2023-04-18T07:30:31.633Z,38.30
2023-04-18T07:32:59.302Z,38.30
2023-04-18T07:35:26.929Z,38.30
2023-04-18T07:37:55.685Z,38.30
2023-04-18T07:40:23.469Z,38.30
2023-04-18T07:45:49.510Z,38.20
2023-04-18T07:48:22.389Z,38.20
2023-04-18T07:50:51.043Z,38.20
2023-04-18T07:53:19.281Z,38.20
2023-04-18T07:55:47.149Z,38.30
2023-04-18T07:58:15.030Z,38.30
2023-04-18T08:00:51.924Z,38.40
2023-04-18T08:03:20.066Z,38.40
2023-04-18T08:05:47.894Z,38.40
2023-04-18T08:08:16.292Z,38.40
2023-04-18T08:10:52.816Z,38.40
2023-04-18T08:13:21.485Z,38.40
2023-04-18T08:15:49.323Z,38.50
2023-04-18T08:18:19.970Z,38.50
2023-04-18T08:20:47.576Z,38.50
2023-04-18T08:23:15.384Z,38.60
2023-04-18T08:25:43.485Z,38.60
2023-04-18T08:28:11.280Z,38.60
2023-04-18T08:30:39.825Z,38.60
2023-04-18T08:33:08.995Z,38.50
2023-04-18T08:35:37.440Z,38.50
2023-04-18T08:38:04.999Z,38.50
2023-04-18T08:40:33.494Z,38.50
2023-04-18T08:43:05.233Z,38.50
2023-04-18T08:45:33.579Z,38.40
2023-04-18T08:48:03.914Z,38.40
2023-04-18T08:50:32.688Z,38.40
2023-04-18T08:53:04.259Z,38.40
2023-04-18T08:55:33.866Z,38.40
2023-04-18T08:58:02.095Z,38.40
2023-04-18T09:00:29.728Z,38.40
2023-04-18T09:03:15.817Z,38.30
2023-04-18T09:05:44.250Z,38.30
2023-04-18T09:08:27.071Z,38.30
2023-04-18T09:10:54.678Z,38.30
2023-04-18T09:13:39.111Z,38.20
2023-04-18T09:16:38.101Z,38.20
2023-04-18T09:19:24.335Z,38.20
2023-04-18T09:22:03.589Z,38.20
2023-04-18T09:24:32.712Z,38.20
2023-04-18T09:27:01.462Z,38.20
2023-04-18T09:29:50.260Z,38.20
2023-04-18T09:32:25.590Z,38.20
2023-04-18T09:35:11.841Z,38.10
2023-04-18T09:37:39.476Z,38.10
2023-04-18T09:40:18.823Z,38.10
2023-04-18T09:46:19.817Z,38.00
2023-04-18T09:48:47.504Z,38.00
2023-04-18T09:51:17.063Z,38.00
2023-04-18T09:53:49.746Z,38.00
2023-04-18T09:56:48.230Z,38.00
2023-04-18T09:59:20.505Z,37.90
2023-04-18T10:01:50.081Z,37.90
2023-04-18T10:04:18.387Z,37.80
2023-04-18T10:06:47.583Z,37.80
2023-04-18T10:09:16.419Z,37.80
2023-04-18T10:11:44.950Z,37.80
2023-04-18T10:14:14.078Z,37.80
2023-04-18T10:16:42.744Z,37.70
2023-04-18T10:19:26.547Z,37.70
2023-04-18T10:21:54.073Z,37.70
2023-04-18T10:24:40.243Z,37.60
2023-04-18T10:27:08.111Z,37.60
2023-04-18T10:29:51.627Z,37.60
2023-04-18T10:32:20.968Z,37.50
2023-04-18T10:34:50.120Z,37.50
2023-04-18T10:37:19.144Z,37.50
2023-04-18T10:39:52.590Z,37.50
2023-04-18T10:42:40.897Z,37.40
2023-04-18T10:45:21.578Z,37.40
2023-04-18T10:47:49.317Z,37.30
2023-04-18T10:50:17.408Z,37.20
2023-04-18T10:52:45.096Z,37.30
2023-04-18T10:55:26.680Z,37.20
2023-04-18T10:57:56.745Z,37.10
2023-04-18T11:00:24.492Z,37.10
2023-04-18T11:02:54.181Z,37.10
2023-04-18T11:05:23.056Z,37.00
2023-04-18T11:07:54.136Z,36.90
2023-04-18T11:10:24.528Z,36.90
2023-04-18T11:12:53.483Z,36.80
2023-04-18T11:15:22.458Z,36.80
2023-04-18T11:18:05.613Z,36.80
2023-04-18T11:20:40.038Z,36.80
2023-04-18T11:23:16.361Z,36.70
2023-04-18T11:25:45.183Z,36.60
2023-04-18T11:28:23.176Z,36.60
2023-04-18T11:31:12.241Z,36.50
2023-04-18T11:33:39.985Z,36.50
2023-04-18T11:36:07.874Z,36.40
2023-04-18T11:38:37.398Z,36.40
2023-04-18T11:41:05.279Z,36.30
2023-04-18T11:43:32.866Z,36.30
2023-04-18T11:46:01.315Z,36.20
2023-04-18T11:48:42.036Z,36.20
2023-04-18T11:51:31.081Z,36.20
2023-04-18T11:53:58.675Z,36.10
2023-04-18T11:56:26.321Z,36.10
2023-04-18T11:58:54.058Z,36.00
2023-04-18T12:01:22.719Z,36.00
2023-04-18T12:04:04.080Z,36.00
2023-04-18T12:06:48.339Z,35.90
2023-04-18T12:09:16.771Z,35.90
2023-04-18T12:11:45.279Z,35.80
2023-04-18T12:14:22.365Z,35.70
2023-04-18T12:16:51.335Z,35.70
2023-04-18T12:19:20.970Z,35.70
2023-04-18T12:22:01.122Z,35.60
2023-04-18T12:24:33.133Z,35.60
2023-04-18T12:27:01.650Z,35.60
2023-04-18T12:29:29.809Z,35.60
2023-04-18T12:31:57.525Z,35.50
2023-04-18T12:34:25.115Z,35.50
2023-04-18T12:36:53.000Z,35.50
2023-04-18T12:39:20.609Z,35.50
2023-04-18T12:41:49.750Z,35.40
2023-04-18T12:44:17.861Z,35.40
2023-04-18T12:46:45.612Z,35.40
2023-04-18T12:49:14.096Z,35.30
2023-04-18T12:51:41.707Z,35.30
2023-04-18T12:54:10.115Z,35.20
2023-04-18T12:56:37.726Z,35.20
2023-04-18T12:59:05.407Z,35.20
2023-04-18T13:01:33.107Z,35.20
2023-04-18T13:04:11.800Z,35.20
2023-04-18T13:06:41.057Z,35.10
2023-04-18T13:09:09.475Z,35.10
2023-04-18T13:11:37.055Z,35.00
2023-04-18T13:14:04.721Z,35.00
2023-04-18T13:16:32.363Z,35.00
2023-04-18T13:19:00.168Z,35.00
2023-04-18T13:21:27.804Z,34.90
2023-04-18T13:23:55.450Z,34.90
2023-04-18T13:26:24.094Z,34.90
2023-04-18T13:28:52.160Z,34.90
2023-04-18T13:31:19.752Z,34.80
2023-04-18T13:33:48.208Z,34.90
2023-04-18T13:36:16.588Z,34.80
2023-04-18T13:38:44.654Z,34.80
2023-04-18T13:41:13.453Z,34.80
2023-04-18T13:43:42.180Z,34.80
2023-04-18T13:46:09.907Z,34.70
2023-04-18T13:48:37.895Z,34.70
2023-04-18T13:51:05.958Z,34.70
2023-04-18T13:53:33.567Z,34.70
2023-04-18T13:56:01.968Z,34.70
2023-04-18T13:58:29.921Z,34.60
2023-04-18T14:00:58.369Z,34.60
2023-04-18T14:03:26.839Z,34.60
2023-04-18T14:05:55.446Z,34.60
2023-04-18T14:08:23.000Z,34.60
2023-04-18T14:10:50.966Z,34.60
2023-04-18T14:13:18.565Z,34.50
2023-04-18T14:15:46.204Z,34.50
2023-04-18T14:18:14.671Z,34.50
2023-04-18T14:20:42.314Z,34.50
2023-04-18T14:23:09.976Z,34.50
2023-04-18T14:25:37.964Z,34.50
2023-04-18T14:28:12.504Z,34.50
2023-04-18T14:30:41.367Z,34.40
2023-04-18T14:33:10.408Z,34.40
2023-04-18T14:35:38.042Z,34.40
2023-04-18T14:38:05.715Z,34.40
2023-04-18T14:40:33.413Z,34.30
2023-04-18T14:43:01.187Z,34.30
2023-04-18T14:45:28.773Z,34.30
2023-04-18T14:47:57.246Z,34.30
2023-04-18T14:50:25.036Z,34.30
2023-04-18T14:52:52.695Z,34.20
2023-04-18T14:55:21.204Z,34.20
2023-04-18T14:57:49.717Z,34.20
2023-04-18T15:00:17.468Z,34.20
2023-04-18T15:02:45.270Z,34.20
2023-04-18T15:05:13.508Z,34.10
2023-04-18T15:07:43.117Z,34.10
2023-04-18T15:10:13.244Z,34.10
2023-04-18T15:12:41.773Z,34.10
2023-04-18T15:15:09.549Z,34.10
2023-04-18T15:17:37.203Z,34.10
2023-04-18T15:20:07.427Z,34.10
2023-04-18T15:22:35.275Z,34.10
2023-04-18T15:25:04.304Z,34.10
2023-04-18T15:27:32.697Z,34.00
2023-04-18T15:30:00.389Z,34.00
2023-04-18T15:32:27.998Z,34.00
2023-04-18T15:34:55.682Z,34.00
2023-04-18T15:37:24.669Z,33.90
2023-04-18T15:39:52.248Z,33.90
2023-04-18T15:42:19.856Z,33.90
2023-04-18T15:44:47.562Z,33.90
2023-04-18T15:47:15.214Z,33.90
2023-04-18T15:49:42.812Z,33.90
2023-04-18T15:52:10.379Z,33.80
2023-04-18T15:54:41.794Z,33.80
2023-04-18T15:57:10.003Z,33.80
2023-04-18T15:59:37.888Z,33.70
2023-04-18T16:02:07.056Z,33.70
2023-04-18T16:04:34.881Z,33.70
2023-04-18T16:07:04.020Z,33.70
2023-04-18T16:09:32.059Z,33.60
2023-04-18T16:12:00.555Z,33.60
2023-04-18T16:14:28.203Z,33.60
2023-04-18T16:16:55.921Z,33.60
2023-04-18T16:19:23.874Z,33.50
2023-04-18T16:21:51.516Z,33.50
2023-04-18T16:24:19.144Z,33.50
2023-04-18T16:26:46.852Z,33.40
2023-04-18T16:29:15.285Z,33.40
2023-04-18T16:31:43.460Z,33.40
2023-04-18T16:34:11.202Z,33.40
2023-04-18T16:36:38.854Z,33.40
2023-04-18T16:39:06.452Z,33.30
2023-04-18T16:41:34.244Z,33.40
2023-04-18T16:44:01.807Z,33.30
2023-04-18T16:46:32.538Z,33.30
2023-04-18T16:49:01.784Z,33.30
2023-04-18T16:51:30.203Z,33.20
2023-04-18T16:53:57.758Z,33.20
2023-04-18T16:56:26.339Z,33.20
2023-04-18T16:58:54.698Z,33.20
2023-04-18T17:01:22.390Z,33.20
2023-04-18T17:03:50.145Z,33.20
2023-04-18T17:06:20.485Z,33.20
2023-04-18T17:08:50.008Z,33.20
2023-04-18T17:11:17.928Z,33.10
2023-04-18T17:13:45.530Z,33.10
2023-04-18T17:16:13.961Z,33.10
2023-04-18T17:18:42.756Z,33.10
2023-04-18T17:21:12.763Z,33.00
2023-04-18T17:23:42.667Z,33.00
2023-04-18T17:26:10.543Z,33.10
2023-04-18T17:28:38.211Z,33.00
2023-04-18T17:31:05.902Z,33.00
2023-04-18T17:33:33.515Z,33.00
2023-04-18T17:36:01.156Z,32.90
2023-04-18T17:38:28.720Z,32.90
2023-04-18T17:40:59.900Z,32.90
2023-04-18T17:43:28.400Z,32.90
2023-04-18T17:45:57.125Z,32.80
2023-04-18T17:48:24.846Z,32.90
2023-04-18T17:50:52.434Z,32.80
2023-04-18T17:53:20.101Z,32.80
2023-04-18T17:55:50.714Z,32.80
2023-04-18T17:58:19.141Z,32.80
2023-04-18T18:00:46.997Z,32.70
2023-04-18T18:03:16.408Z,32.70
2023-04-18T18:05:47.564Z,32.70
2023-04-18T18:08:15.957Z,32.70
2023-04-18T18:10:46.496Z,32.70
2023-04-18T18:13:14.990Z,32.60
2023-04-18T18:15:42.527Z,32.60
2023-04-18T18:18:10.440Z,32.60
2023-04-18T18:20:38.093Z,32.60
2023-04-18T18:23:07.273Z,32.60
2023-04-18T18:25:37.277Z,32.60
2023-04-18T18:28:05.048Z,32.50
2023-04-18T18:30:32.618Z,32.50
2023-04-18T18:33:01.851Z,32.50
2023-04-18T18:35:29.545Z,32.40
2023-04-18T18:37:57.124Z,32.40
2023-04-18T18:40:24.744Z,32.40
2023-04-18T18:42:54.825Z,32.40
2023-04-18T18:45:22.537Z,32.40
2023-04-18T18:47:51.013Z,32.40
2023-04-18T18:50:19.534Z,32.40
2023-04-18T18:52:47.423Z,32.30
2023-04-18T18:55:16.030Z,32.30
2023-04-18T18:57:43.706Z,32.30
2023-04-18T19:00:11.794Z,32.30
2023-04-18T19:02:40.204Z,32.20
2023-04-18T19:05:08.070Z,32.20
2023-04-18T19:07:36.644Z,32.20
2023-04-18T19:10:04.879Z,32.20
2023-04-18T19:12:33.302Z,32.20
2023-04-18T19:15:00.877Z,32.20
2023-04-18T19:17:28.487Z,32.10
2023-04-18T19:19:58.231Z,32.10
2023-04-18T19:22:25.813Z,32.10
2023-04-18T19:24:53.579Z,32.10
2023-04-18T19:27:22.149Z,32.00
2023-04-18T19:29:50.574Z,32.00
2023-04-18T19:32:18.145Z,32.00
2023-04-18T19:34:46.736Z,32.00
2023-04-18T19:37:14.373Z,32.00
2023-04-18T19:39:42.003Z,32.00
2023-04-18T19:42:09.641Z,31.90
2023-04-18T19:44:37.311Z,32.00
2023-04-18T19:47:05.052Z,31.90
2023-04-18T19:49:32.700Z,31.90
2023-04-18T19:52:00.253Z,31.90
2023-04-18T19:54:28.641Z,31.90
2023-04-18T19:56:56.735Z,31.80
2023-04-18T19:59:25.092Z,31.80
2023-04-18T20:01:52.651Z,31.80
2023-04-18T20:04:20.341Z,31.80
2023-04-18T20:06:48.015Z,31.80
2023-04-18T20:09:17.676Z,31.70
2023-04-18T20:11:46.790Z,31.70
2023-04-18T20:14:14.460Z,31.70
2023-04-18T20:16:43.850Z,31.70
2023-04-18T20:19:12.641Z,31.70
2023-04-18T20:21:41.634Z,31.70
2023-04-18T20:24:09.955Z,31.60
2023-04-18T20:26:37.592Z,31.60
2023-04-18T20:29:05.205Z,31.60
2023-04-18T20:31:32.740Z,31.60
2023-04-18T20:34:00.373Z,31.60
2023-04-18T20:36:29.325Z,31.60
2023-04-18T20:38:56.869Z,31.50
2023-04-18T20:41:26.944Z,31.50
2023-04-18T20:43:54.601Z,31.50
2023-04-18T20:46:22.255Z,31.50
2023-04-18T20:48:49.901Z,31.50
2023-04-18T20:51:17.566Z,31.50
2023-04-18T20:53:45.133Z,31.40
2023-04-18T20:56:12.702Z,31.40
2023-04-18T20:58:41.162Z,31.40
2023-04-18T21:01:08.880Z,31.40
2023-04-18T21:03:36.681Z,31.40
2023-04-18T21:06:04.680Z,31.30
2023-04-18T21:08:35.699Z,31.30
2023-04-18T21:11:03.337Z,31.30
2023-04-18T21:13:32.686Z,31.30
2023-04-18T21:16:01.900Z,31.30
2023-04-18T21:18:31.225Z,31.30
2023-04-18T21:20:59.593Z,31.20
2023-04-18T21:23:27.168Z,31.20
2023-04-18T21:25:55.580Z,31.20
2023-04-18T21:28:23.234Z,31.20
2023-04-18T21:30:50.978Z,31.10
2023-04-18T21:33:19.530Z,31.20
2023-04-18T21:35:47.493Z,31.10
2023-04-18T21:38:15.121Z,31.10
2023-04-18T21:40:42.696Z,31.10
2023-04-18T21:43:11.141Z,31.10
2023-04-18T21:45:38.752Z,31.10
2023-04-18T21:48:07.262Z,31.10
2023-04-18T21:50:34.820Z,31.00
2023-04-18T21:53:02.446Z,31.00
2023-04-18T21:55:30.224Z,31.00
2023-04-18T21:57:57.880Z,31.00
2023-04-18T22:00:25.492Z,31.00
2023-04-18T22:02:53.379Z,31.00
2023-04-18T22:05:21.102Z,30.90
2023-04-18T22:07:57.379Z,30.90
2023-04-18T22:10:25.959Z,30.90
2023-04-18T22:12:56.321Z,30.90
2023-04-18T22:15:24.688Z,30.90
2023-04-18T22:17:53.280Z,30.80
2023-04-18T22:20:21.822Z,30.80
2023-04-18T22:22:50.196Z,30.80
2023-04-18T22:25:18.773Z,30.80
2023-04-18T22:27:47.606Z,30.70
2023-04-18T22:30:15.715Z,30.70
2023-04-18T22:32:43.374Z,30.70
2023-04-18T22:35:11.097Z,30.70
2023-04-18T22:37:38.676Z,30.60
2023-04-18T22:40:06.641Z,30.60
2023-04-18T22:42:35.188Z,30.60
2023-04-18T22:45:04.582Z,30.60
2023-04-18T22:47:32.223Z,30.50
2023-04-18T22:49:59.800Z,30.50
2023-04-18T22:52:27.421Z,30.50
2023-04-18T22:54:55.062Z,30.50
2023-04-18T22:57:22.627Z,30.40
2023-04-18T22:59:50.248Z,30.40
2023-04-18T23:02:18.002Z,30.40
2023-04-18T23:04:47.102Z,30.40
2023-04-18T23:07:39.271Z,30.40
2023-04-18T23:10:07.360Z,30.40
2023-04-18T23:12:35.225Z,30.40
2023-04-18T23:15:02.748Z,30.40
2023-04-18T23:17:30.416Z,30.40
2023-04-18T23:19:59.378Z,30.30
2023-04-18T23:22:27.090Z,30.30
2023-04-18T23:24:55.339Z,30.30
2023-04-18T23:27:22.923Z,30.30
2023-04-18T23:29:50.634Z,30.30
2023-04-18T23:32:18.165Z,30.30
2023-04-18T23:34:46.224Z,30.30
2023-04-18T23:37:13.750Z,30.30
2023-04-18T23:39:41.287Z,30.30
2023-04-18T23:42:08.915Z,30.30
2023-04-18T23:44:37.365Z,30.30
2023-04-18T23:47:04.949Z,30.30
2023-04-18T23:49:32.718Z,30.40
2023-04-18T23:52:00.253Z,30.30
2023-04-18T23:54:28.743Z,30.40
2023-04-18T23:56:58.201Z,30.40
2023-04-18T23:59:25.976Z,30.40
